createdAt,value
2018-04-17T00:00:57.241Z,13.2
2018-04-17T00:02:17.079Z,13.3
2018-04-17T00:03:36.910Z,13.2
2018-04-17T00:04:56.745Z,13.3
2018-04-17T00:06:19.136Z,13.1
2018-04-17T00:07:39.008Z,12.9
2018-04-17T00:08:58.914Z,13
2018-04-17T00:10:23.844Z,13
2018-04-17T00:11:43.712Z,13
2018-04-17T00:13:03.576Z,12.9
2018-04-17T00:14:23.441Z,12.9
2018-04-17T00:15:45.810Z,13
2018-04-17T00:17:05.642Z,13
2018-04-17T00:18:25.477Z,13.1
2018-04-17T00:19:47.846Z,13.3
2018-04-17T00:21:12.754Z,13.2
2018-04-17T00:22:37.675Z,13.2
2018-04-17T00:23:57.533Z,13.2
2018-04-17T00:25:17.372Z,13.2
2018-04-17T00:26:39.728Z,13.3
2018-04-17T00:27:59.565Z,13.2
2018-04-17T00:29:19.430Z,13.2
2018-04-17T00:30:39.310Z,13.1
2018-04-17T00:32:04.257Z,13
2018-04-17T00:33:24.143Z,13.1
2018-04-17T00:34:44.028Z,13.1
2018-04-17T00:36:08.957Z,13.1
2018-04-17T00:37:28.816Z,13.1
2018-04-17T00:38:48.680Z,13.1
2018-04-17T00:40:08.545Z,13
2018-04-17T00:41:28.446Z,13
2018-04-17T00:42:53.364Z,13
2018-04-17T00:44:13.222Z,13
2018-04-17T00:45:33.100Z,13
2018-04-17T00:46:58.013Z,13
2018-04-17T00:48:17.904Z,13
2018-04-17T00:49:37.785Z,12.9
2018-04-17T00:50:57.705Z,12.9
2018-04-17T00:52:17.552Z,12.9
2018-04-17T00:53:39.922Z,12.9
2018-04-17T00:54:59.761Z,12.9
2018-04-17T00:56:19.603Z,13
2018-04-17T00:57:39.437Z,13
2018-04-17T00:58:59.274Z,12.9
2018-04-17T01:00:21.681Z,13
2018-04-17T01:01:41.551Z,13
2018-04-17T01:03:01.462Z,12.9
2018-04-17T01:04:21.331Z,13
2018-04-17T01:05:41.173Z,12.9
2018-04-17T01:07:03.594Z,12.8
2018-04-17T01:08:23.488Z,12.9
2018-04-17T01:09:45.856Z,12.9
2018-04-17T01:11:05.697Z,12.8
2018-04-17T01:12:25.545Z,12.7
2018-04-17T01:13:45.440Z,12.7
2018-04-17T01:15:05.272Z,12.8
2018-04-17T01:16:25.102Z,12.7
2018-04-17T01:17:47.462Z,12.7
2018-04-17T01:19:09.825Z,12.6
2018-04-17T01:20:29.714Z,12.7
2018-04-17T01:21:49.564Z,12.8
2018-04-17T01:23:11.987Z,12.8
2018-04-17T01:24:31.821Z,12.8
2018-04-17T01:25:54.191Z,12.7
2018-04-17T01:27:14.046Z,12.7
2018-04-17T01:28:33.888Z,12.6
2018-04-17T01:29:56.296Z,12.6
2018-04-17T01:31:16.125Z,12.8
2018-04-17T01:32:35.982Z,12.7
2018-04-17T01:33:55.862Z,12.5
2018-04-17T01:35:20.761Z,12.6
2018-04-17T01:36:43.197Z,12.7
2018-04-17T01:38:03.089Z,12.6
2018-04-17T01:39:30.537Z,12.6
2018-04-17T01:40:52.928Z,12.8
2018-04-17T01:42:15.346Z,12.8
2018-04-17T01:43:35.183Z,12.9
2018-04-17T01:44:55.017Z,12.9
2018-04-17T01:46:17.385Z,13
2018-04-17T01:47:47.398Z,12.9
2018-04-17T01:49:12.300Z,12.7
2018-04-17T01:50:39.724Z,12.7
2018-04-17T01:52:04.678Z,12.6
2018-04-17T01:53:24.578Z,12.7
2018-04-17T01:54:52.051Z,12.7
2018-04-17T01:56:14.460Z,12.7
2018-04-17T01:57:34.299Z,12.8
2018-04-17T01:58:54.158Z,12.8
2018-04-17T02:00:13.998Z,12.7
2018-04-17T02:01:36.423Z,12.6
2018-04-17T02:03:03.854Z,12.6
2018-04-17T02:04:28.761Z,12.7
2018-04-17T02:05:53.683Z,12.6
2018-04-17T02:07:16.040Z,12.7
2018-04-17T02:08:38.470Z,12.7
2018-04-17T02:09:58.348Z,12.7
2018-04-17T02:11:18.234Z,12.7
2018-04-17T02:12:43.153Z,12.8
2018-04-17T02:14:08.111Z,12.8
2018-04-17T02:15:27.968Z,12.7
2018-04-17T02:16:47.879Z,12.8
2018-04-17T02:18:12.837Z,12.6
2018-04-17T02:19:32.712Z,12.7
2018-04-17T02:20:52.565Z,12.8
2018-04-17T02:22:12.427Z,12.8
2018-04-17T02:23:32.321Z,12.5
2018-04-17T02:24:52.191Z,12.8
2018-04-17T02:26:12.024Z,12.7
2018-04-17T02:27:31.893Z,12.6
2018-04-17T02:28:51.736Z,12.5
2018-04-17T02:30:11.576Z,12.3
2018-04-17T02:31:46.657Z,12.4
2018-04-17T02:33:06.497Z,12.5
2018-04-17T02:34:28.934Z,12.3
2018-04-17T02:35:48.768Z,12.4
2018-04-17T02:37:11.140Z,12.5
2018-04-17T02:38:36.076Z,12.4
2018-04-17T02:40:00.987Z,12.2
2018-04-17T02:41:20.847Z,12.2
2018-04-17T02:42:40.721Z,12.5
2018-04-17T02:44:00.580Z,12.4
2018-04-17T02:45:20.454Z,12.4
2018-04-17T02:46:40.309Z,12.2
2018-04-17T02:48:00.161Z,12.5
2018-04-17T02:49:20.037Z,12.4
2018-04-17T02:50:39.889Z,12.4
2018-04-17T02:51:59.727Z,12.5
2018-04-17T02:53:22.144Z,12.4
2018-04-17T02:54:47.100Z,12.4
2018-04-17T02:56:09.485Z,12.4
2018-04-17T02:57:29.318Z,12.4
2018-04-17T02:58:54.228Z,12.5
2018-04-17T03:00:19.140Z,12.3
2018-04-17T03:01:38.973Z,12.3
2018-04-17T03:02:58.847Z,12.3
2018-04-17T03:04:18.710Z,12.2
2018-04-17T03:05:41.076Z,12.2
2018-04-17T03:07:00.959Z,12.3
2018-04-17T03:08:23.350Z,12.2
2018-04-17T03:10:00.898Z,12.2
2018-04-17T03:11:23.347Z,12.2
2018-04-17T03:12:45.716Z,12.1
2018-04-17T03:14:05.547Z,12.3
2018-04-17T03:15:27.937Z,12.4
2018-04-17T03:16:47.826Z,12.4
2018-04-17T03:18:07.733Z,12.1
2018-04-17T03:19:32.664Z,12.1
2018-04-17T03:20:52.533Z,12.1
2018-04-17T03:22:12.379Z,12.5
2018-04-17T03:23:34.756Z,12.5
2018-04-17T03:24:57.113Z,12.5
2018-04-17T03:26:16.962Z,12.5
2018-04-17T03:27:46.937Z,12.4
2018-04-17T03:29:06.813Z,12.4
2018-04-17T03:30:26.647Z,12.4
2018-04-17T03:31:46.537Z,12.4
2018-04-17T03:33:06.395Z,12.4
2018-04-17T03:34:26.231Z,12.5
2018-04-17T03:35:46.124Z,12.4
2018-04-17T03:37:06.017Z,12.5
2018-04-17T03:38:25.851Z,12.5
2018-04-17T03:39:48.271Z,12.5
2018-04-17T03:41:10.669Z,12.5
2018-04-17T03:42:30.521Z,12.4
2018-04-17T03:43:52.947Z,12.4
2018-04-17T03:45:20.376Z,12.2
2018-04-17T03:46:45.264Z,12.4
2018-04-17T03:48:10.155Z,12.3
2018-04-17T03:49:29.998Z,12.4
2018-04-17T03:50:49.886Z,12.4
2018-04-17T03:52:09.754Z,12.4
2018-04-17T03:53:39.727Z,12.4
2018-04-17T03:54:59.575Z,12.4
2018-04-17T03:56:21.955Z,12.4
2018-04-17T03:57:51.973Z,12.5
2018-04-17T03:59:11.828Z,12.5
2018-04-17T04:00:34.215Z,12.7
2018-04-17T04:01:54.052Z,12.3
2018-04-17T04:03:16.462Z,12.2
2018-04-17T04:04:41.365Z,12.2
2018-04-17T04:06:01.223Z,12
2018-04-17T04:07:21.061Z,11.9
2018-04-17T04:08:45.980Z,11.9
2018-04-17T04:10:08.345Z,11.8
2018-04-17T04:11:30.728Z,11.9
2018-04-17T04:12:58.210Z,12
2018-04-17T04:14:18.094Z,11.9
2018-04-17T04:15:40.516Z,12
2018-04-17T04:17:00.368Z,12.1
2018-04-17T04:18:20.238Z,12.1
2018-04-17T04:19:42.654Z,12.1
2018-04-17T04:21:07.419Z,12
2018-04-17T04:22:27.266Z,12
2018-04-17T04:23:52.186Z,12.1
2018-04-17T04:25:14.590Z,12.1
2018-04-17T04:26:36.949Z,12.5
2018-04-17T04:27:59.374Z,12.4
2018-04-17T04:29:31.866Z,12.3
2018-04-17T04:30:59.317Z,12.4
2018-04-17T04:32:19.158Z,12.3
2018-04-17T04:33:41.534Z,12.4
2018-04-17T04:35:01.374Z,12.4
2018-04-17T04:36:23.792Z,12.5
2018-04-17T04:37:43.686Z,12.4
2018-04-17T04:39:03.526Z,12.5
2018-04-17T04:40:28.421Z,12.5
2018-04-17T04:41:50.793Z,12.6
2018-04-17T04:43:10.648Z,12.7
2018-04-17T04:44:35.613Z,12.7
2018-04-17T04:45:58.018Z,12.7
2018-04-17T04:47:17.907Z,12.6
2018-04-17T04:48:37.801Z,12.6
2018-04-17T04:49:57.674Z,12.6
2018-04-17T04:51:22.627Z,12.6
2018-04-17T04:52:45.011Z,12.6
2018-04-17T04:54:04.851Z,12.6
2018-04-17T04:55:27.302Z,12.7
2018-04-17T04:56:47.182Z,12.6
2018-04-17T04:58:07.085Z,12.6
2018-04-17T04:59:26.927Z,12.7
2018-04-17T05:00:49.322Z,12.6
2018-04-17T05:02:09.211Z,12.6
2018-04-17T05:03:41.714Z,12.7
2018-04-17T05:05:01.602Z,12.8
2018-04-17T05:06:26.510Z,12.8
2018-04-17T05:07:46.383Z,12.9
2018-04-17T05:09:11.333Z,12.9
2018-04-17T05:10:36.273Z,12.9
2018-04-17T05:12:01.178Z,12.8
2018-04-17T05:13:21.022Z,12.9
2018-04-17T05:14:43.393Z,13
2018-04-17T05:16:05.804Z,12.9
2018-04-17T05:17:25.651Z,12.9
2018-04-17T05:18:45.510Z,13
2018-04-17T05:20:12.988Z,12.8
2018-04-17T05:21:32.868Z,12.9
2018-04-17T05:22:55.265Z,13
2018-04-17T05:24:15.138Z,12.9
2018-04-17T05:25:34.976Z,13
2018-04-17T05:27:07.570Z,13
2018-04-17T05:28:32.531Z,13
2018-04-17T05:29:52.446Z,13.1
2018-04-17T05:31:19.875Z,13
2018-04-17T05:32:39.765Z,13.1
2018-04-17T05:34:07.222Z,13.1
2018-04-17T05:35:27.126Z,13
2018-04-17T05:36:49.517Z,13.1
2018-04-17T05:38:22.094Z,13
2018-04-17T05:39:44.475Z,13.2
2018-04-17T05:41:11.947Z,13.1
2018-04-17T05:42:41.973Z,12.9
2018-04-17T05:44:04.344Z,12.9
2018-04-17T05:45:24.216Z,12.9
2018-04-17T05:46:46.591Z,13
2018-04-17T05:48:09.015Z,12.9
2018-04-17T05:49:28.837Z,13
2018-04-17T05:50:48.653Z,12.9
2018-04-17T05:52:13.581Z,12.9
2018-04-17T05:53:33.449Z,12.9
2018-04-17T05:54:53.266Z,13
2018-04-17T05:56:13.135Z,12.9
2018-04-17T05:57:43.097Z,12.9
2018-04-17T05:59:05.466Z,12.9
2018-04-17T06:00:30.353Z,12.9
2018-04-17T06:01:55.283Z,12.9
2018-04-17T06:03:17.682Z,12.8
2018-04-17T06:04:37.580Z,12.9
2018-04-17T06:05:59.982Z,13
2018-04-17T06:07:19.825Z,13
2018-04-17T06:08:52.333Z,13.1
2018-04-17T06:10:19.759Z,13
2018-04-17T06:11:39.626Z,13
2018-04-17T06:12:59.444Z,13.1
2018-04-17T06:14:31.940Z,13
2018-04-17T06:15:51.794Z,13
2018-04-17T06:17:19.216Z,13
2018-04-17T06:18:39.036Z,13
2018-04-17T06:19:58.891Z,13
2018-04-17T06:21:18.756Z,13
2018-04-17T06:22:38.616Z,13.1
2018-04-17T06:23:58.437Z,13.1
2018-04-17T06:25:18.300Z,13
2018-04-17T06:26:38.119Z,13
2018-04-17T06:28:03.028Z,12.6
2018-04-17T06:29:22.856Z,12.9
2018-04-17T06:30:42.694Z,13
2018-04-17T06:32:02.545Z,13
2018-04-17T06:33:24.935Z,13.1
2018-04-17T06:34:49.832Z,13
2018-04-17T06:36:14.712Z,13.1
2018-04-17T06:37:37.095Z,13.1
2018-04-17T06:38:56.946Z,13.1
2018-04-17T06:40:16.826Z,13.1
2018-04-17T06:41:39.238Z,13
2018-04-17T06:42:59.115Z,13.1
2018-04-17T06:44:24.034Z,13.1
2018-04-17T06:45:53.987Z,12.7
2018-04-17T06:47:16.391Z,12.6
2018-04-17T06:48:38.811Z,12.9
2018-04-17T06:49:58.629Z,12.9
2018-04-17T06:51:23.511Z,13.2
2018-04-17T06:52:43.407Z,13.1
2018-04-17T06:54:08.306Z,13.1
2018-04-17T06:55:28.169Z,13.2
2018-04-17T06:56:53.068Z,13.2
2018-04-17T06:58:12.954Z,13.1
2018-04-17T06:59:35.328Z,13.2
2018-04-17T07:01:02.753Z,13.4
2018-04-17T07:02:22.620Z,13.5
2018-04-17T07:03:47.504Z,13.4
2018-04-17T07:05:40.298Z,13.6
2018-04-17T07:07:00.121Z,13.6
2018-04-17T07:08:19.939Z,13.5
2018-04-17T07:09:39.760Z,13.5
2018-04-17T07:10:59.609Z,13.6
2018-04-17T07:12:19.433Z,13.5
2018-04-17T07:13:44.360Z,13.5
2018-04-17T07:15:04.185Z,13.6
2018-04-17T07:16:24.006Z,13.6
2018-04-17T07:17:43.846Z,13.6
2018-04-17T07:19:03.679Z,13.6
2018-04-17T07:20:26.038Z,13.5
2018-04-17T07:21:48.391Z,13.6
2018-04-17T07:23:13.293Z,13.6
2018-04-17T07:24:35.676Z,13.8
2018-04-17T07:25:55.548Z,13.8
2018-04-17T07:27:15.422Z,13.8
2018-04-17T07:28:35.242Z,13.7
2018-04-17T07:29:55.062Z,13.8
2018-04-17T07:31:14.917Z,13.6
2018-04-17T07:32:37.330Z,13.6
2018-04-17T07:33:57.210Z,13.6
2018-04-17T07:35:17.067Z,13.8
2018-04-17T07:36:36.909Z,13.5
2018-04-17T07:37:56.770Z,13.6
2018-04-17T07:39:19.124Z,13.6
2018-04-17T07:40:39.028Z,13.6
2018-04-17T07:41:58.851Z,13.7
2018-04-17T07:43:21.203Z,13.7
2018-04-17T07:44:41.053Z,13.9
2018-04-17T07:46:00.873Z,14
2018-04-17T07:47:53.613Z,14.1
2018-04-17T07:49:15.989Z,14.1
2018-04-17T07:50:35.845Z,14
2018-04-17T07:52:00.731Z,14
2018-04-17T07:53:23.094Z,14.1
2018-04-17T07:54:42.946Z,14.1
2018-04-17T07:56:05.362Z,14.1
2018-04-17T07:57:25.184Z,14
2018-04-17T07:58:45.006Z,14
2018-04-17T08:00:04.843Z,14
2018-04-17T08:01:24.657Z,14
2018-04-17T08:02:47.028Z,14
2018-04-17T08:04:11.929Z,14.1
2018-04-17T08:05:31.777Z,14.1
2018-04-17T08:07:06.788Z,14
2018-04-17T08:08:26.639Z,14
2018-04-17T08:09:49.001Z,13.9
2018-04-17T08:11:08.875Z,14.1
2018-04-17T08:12:28.694Z,14.1
2018-04-17T08:13:48.524Z,14.1
2018-04-17T08:15:13.468Z,14
2018-04-17T08:16:35.827Z,14.2
2018-04-17T08:17:55.703Z,14
2018-04-17T08:19:18.081Z,14.1
2018-04-17T08:20:43.022Z,14.1
2018-04-17T08:22:10.438Z,14.1
2018-04-17T08:23:35.337Z,14.3
2018-04-17T08:25:05.274Z,14.2
2018-04-17T08:26:25.106Z,14.3
2018-04-17T08:27:44.920Z,14.3
2018-04-17T08:29:04.793Z,14.3
2018-04-17T08:30:24.628Z,14.3
2018-04-17T08:31:44.454Z,14.2
2018-04-17T08:33:06.840Z,14.3
2018-04-17T08:34:29.238Z,14.4
2018-04-17T08:35:49.053Z,14.5
2018-04-17T08:37:08.872Z,14.5
2018-04-17T08:38:31.253Z,14.4
2018-04-17T08:39:51.081Z,14.5
2018-04-17T08:41:13.496Z,14.5
2018-04-17T08:42:33.336Z,14.5
2018-04-17T08:43:53.193Z,14.5
2018-04-17T08:45:13.011Z,14.5
2018-04-17T08:46:35.430Z,14.5
2018-04-17T08:48:00.325Z,14.5
2018-04-17T08:49:27.733Z,14.6
2018-04-17T08:50:47.591Z,14.6
2018-04-17T08:52:07.413Z,14.6
2018-04-17T08:53:27.268Z,14.7
2018-04-17T08:54:47.090Z,14.6
2018-04-17T08:56:09.439Z,14.7
2018-04-17T08:57:29.312Z,14.7
2018-04-17T08:58:49.167Z,14.6
2018-04-17T09:00:11.561Z,14.7
2018-04-17T09:01:36.479Z,14.7
2018-04-17T09:03:01.397Z,14.6
2018-04-17T09:04:21.249Z,14.7
2018-04-17T09:05:41.095Z,14.7
2018-04-17T09:07:00.979Z,14.7
2018-04-17T09:08:20.797Z,14.9
2018-04-17T09:09:43.231Z,14.8
2018-04-17T09:11:10.654Z,14.8
2018-04-17T09:12:43.138Z,14.7
2018-04-17T09:14:02.996Z,14.8
2018-04-17T09:15:22.843Z,14.6
2018-04-17T09:16:42.716Z,14.7
2018-04-17T09:18:02.579Z,14.8
2018-04-17T09:19:27.466Z,14.6
2018-04-17T09:20:47.284Z,14.7
2018-04-17T09:22:14.691Z,14.6
2018-04-17T09:23:34.517Z,14.6
2018-04-17T09:24:54.359Z,14.7
2018-04-17T09:26:16.779Z,14.7
2018-04-17T09:27:36.682Z,14.7
2018-04-17T09:28:56.622Z,14.7
2018-04-17T09:30:16.489Z,14.8
2018-04-17T09:31:41.436Z,14.7
2018-04-17T09:33:06.387Z,14.8
2018-04-17T09:34:26.291Z,14.7
2018-04-17T09:35:46.164Z,14.7
2018-04-17T09:37:06.014Z,14.7
2018-04-17T09:38:28.366Z,14.7
2018-04-17T09:39:50.720Z,14.8
2018-04-17T09:41:10.575Z,14.8
2018-04-17T09:42:30.429Z,14.7
2018-04-17T09:43:50.316Z,14.7
2018-04-17T09:45:10.131Z,14.8
2018-04-17T09:46:29.962Z,14.7
2018-04-17T09:47:49.841Z,14.8
2018-04-17T09:49:14.732Z,14.8
2018-04-17T09:50:39.703Z,14.8
2018-04-17T09:52:02.086Z,14.8
2018-04-17T09:53:24.471Z,14.8
2018-04-17T09:54:44.292Z,14.8
2018-04-17T09:56:06.688Z,14.8
2018-04-17T09:57:29.043Z,15
2018-04-17T09:58:56.542Z,14.7
2018-04-17T10:00:18.902Z,15
2018-04-17T10:01:38.721Z,14.8
2018-04-17T10:02:58.564Z,14.9
2018-04-17T10:04:18.387Z,14.8
2018-04-17T10:05:45.843Z,15
2018-04-17T10:07:08.199Z,14.7
2018-04-17T10:08:33.132Z,14.7
2018-04-17T10:09:55.526Z,14.8
2018-04-17T10:11:15.397Z,14.8
2018-04-17T10:12:42.855Z,14.8
2018-04-17T10:14:05.208Z,14.8
2018-04-17T10:15:25.046Z,14.8
2018-04-17T10:16:44.866Z,14.8
2018-04-17T10:18:04.733Z,14.8
2018-04-17T10:19:29.624Z,14.9
2018-04-17T10:20:49.466Z,14.8
2018-04-17T10:22:09.322Z,14.8
2018-04-17T10:23:31.667Z,14.8
2018-04-17T10:24:59.090Z,14.9
2018-04-17T10:26:23.971Z,15
2018-04-17T10:27:43.832Z,15
2018-04-17T10:29:03.673Z,14.9
2018-04-17T10:30:23.560Z,14.9
2018-04-17T10:31:46.030Z,15
2018-04-17T10:33:08.387Z,15
2018-04-17T10:34:30.775Z,15
2018-04-17T10:35:50.651Z,14.9
2018-04-17T10:37:10.534Z,15.1
2018-04-17T10:38:30.366Z,14.9
2018-04-17T10:39:50.239Z,15
2018-04-17T10:41:10.080Z,15.1
2018-04-17T10:42:29.895Z,15
2018-04-17T10:43:49.754Z,15
2018-04-17T10:45:14.656Z,14.8
2018-04-17T10:46:39.533Z,14.8
2018-04-17T10:48:01.942Z,14.9
2018-04-17T10:49:21.787Z,14.9
2018-04-17T10:50:41.604Z,14.8
2018-04-17T10:52:01.464Z,14.9
2018-04-17T10:53:21.338Z,14.9
2018-04-17T10:54:48.771Z,15
2018-04-17T10:56:08.588Z,15
2018-04-17T10:57:28.417Z,15
2018-04-17T10:58:50.827Z,15
2018-04-17T11:00:13.181Z,15
2018-04-17T11:01:32.997Z,15.1
2018-04-17T11:02:55.343Z,15
2018-04-17T11:04:15.223Z,15.2
2018-04-17T11:05:35.099Z,15.2
2018-04-17T11:06:54.929Z,15.2
2018-04-17T11:08:14.750Z,15.2
2018-04-17T11:09:34.572Z,15.3
2018-04-17T11:10:54.390Z,15.6
2018-04-17T11:12:14.269Z,15.6
2018-04-17T11:13:36.621Z,15.6
2018-04-17T11:14:56.461Z,15.7
2018-04-17T11:16:16.408Z,15.6
2018-04-17T11:17:36.317Z,15.7
2018-04-17T11:19:01.237Z,15.7
2018-04-17T11:20:21.095Z,15.8
2018-04-17T11:21:43.513Z,15.8
2018-04-17T11:23:05.895Z,15.8
2018-04-17T11:24:25.754Z,15.8
2018-04-17T11:25:45.599Z,15.9
2018-04-17T11:27:13.022Z,15.9
2018-04-17T11:28:35.397Z,15.8
2018-04-17T11:30:00.320Z,15.8
2018-04-17T11:31:22.697Z,15.8
2018-04-17T11:32:52.671Z,15.8
2018-04-17T11:34:12.553Z,15.8
2018-04-17T11:35:32.421Z,15.8
2018-04-17T11:36:52.284Z,15.6
2018-04-17T11:38:14.643Z,15.6
2018-04-17T11:39:34.475Z,15.6
2018-04-17T11:40:54.289Z,15.6
2018-04-17T11:42:16.675Z,15.6
2018-04-17T11:43:36.548Z,15.5
2018-04-17T11:44:56.363Z,15.6
2018-04-17T11:46:16.219Z,15.5
2018-04-17T11:47:43.631Z,15.6
2018-04-17T11:49:03.452Z,15.6
2018-04-17T11:50:23.305Z,15.6
2018-04-17T11:51:43.134Z,15.7
2018-04-17T11:53:05.509Z,15.7
2018-04-17T11:54:25.350Z,15.8
2018-04-17T11:55:47.706Z,16.1
2018-04-17T11:57:07.566Z,15.9
2018-04-17T11:58:27.432Z,16
2018-04-17T11:59:49.797Z,16
2018-04-17T12:01:09.625Z,16.1
2018-04-17T12:02:29.455Z,16.2
2018-04-17T12:03:49.300Z,16.2
2018-04-17T12:05:09.169Z,16.3
2018-04-17T12:06:28.997Z,16.4
2018-04-17T12:07:48.867Z,16.4
2018-04-17T12:09:08.683Z,16.5
2018-04-17T12:10:38.629Z,16.6
2018-04-17T12:12:01.006Z,16.8
2018-04-17T12:13:20.871Z,16.9
2018-04-17T12:14:40.764Z,17.2
2018-04-17T12:16:03.118Z,17.3
2018-04-17T12:17:22.942Z,17.4
2018-04-17T12:18:42.796Z,17.5
2018-04-17T12:20:02.615Z,17.6
2018-04-17T12:21:25.015Z,17.8
2018-04-17T12:22:44.896Z,17.8
2018-04-17T12:24:04.775Z,17.7
2018-04-17T12:25:24.596Z,17.7
2018-04-17T12:26:44.422Z,17.3
2018-04-17T12:28:04.312Z,17.3
2018-04-17T12:29:26.661Z,17.3
2018-04-17T12:30:46.486Z,17.2
2018-04-17T12:32:06.323Z,17.2
2018-04-17T12:33:26.143Z,17.2
2018-04-17T12:34:46.001Z,17.2
2018-04-17T12:36:10.969Z,17.2
2018-04-17T12:37:33.355Z,17.3
2018-04-17T12:38:55.733Z,17.3
2018-04-17T12:40:15.577Z,17.3
2018-04-17T12:41:35.455Z,17.3
2018-04-17T12:42:57.811Z,17.3
2018-04-17T12:44:17.634Z,17.3
2018-04-17T12:45:37.458Z,17.7
2018-04-17T12:46:59.854Z,17.9
2018-04-17T12:48:19.726Z,18
2018-04-17T12:49:39.544Z,18
2018-04-17T12:50:59.368Z,17.5
2018-04-17T12:52:19.241Z,17.9
2018-04-17T12:53:39.067Z,18
2018-04-17T12:54:58.894Z,17.8
2018-04-17T12:56:18.717Z,18
2018-04-17T12:57:43.606Z,18.2
2018-04-17T12:59:03.434Z,18.1
2018-04-17T13:00:25.811Z,17.9
2018-04-17T13:01:45.660Z,18.3
2018-04-17T13:03:08.007Z,18.3
2018-04-17T13:04:27.827Z,18.3
2018-04-17T13:05:47.676Z,17.9
2018-04-17T13:07:15.120Z,20
2018-04-17T13:08:34.971Z,20.1
2018-04-17T13:09:57.322Z,20.1
2018-04-17T13:11:19.666Z,18.7
2018-04-17T13:12:49.603Z,20.3
2018-04-17T13:14:09.425Z,20.4
2018-04-17T13:15:31.770Z,20.4
2018-04-17T13:16:59.214Z,20.4
2018-04-17T13:18:19.046Z,20.7
2018-04-17T13:19:38.877Z,20.8
2018-04-17T13:21:01.235Z,20.8
2018-04-17T13:22:23.630Z,20.8
2018-04-17T13:23:43.452Z,20.7
2018-04-17T13:25:03.265Z,20.7
2018-04-17T13:26:23.085Z,20.7
2018-04-17T13:27:45.508Z,20.6
2018-04-17T13:29:05.368Z,20.6
2018-04-17T13:30:25.269Z,20.6
2018-04-17T13:31:47.635Z,20.7
2018-04-17T13:33:10.072Z,20.7
2018-04-17T13:34:29.958Z,20.6
2018-04-17T13:35:49.792Z,20.6
2018-04-17T13:37:09.644Z,20.6
2018-04-17T13:38:34.584Z,20.7
2018-04-17T13:39:54.406Z,20.6
2018-04-17T13:41:16.800Z,20.5
2018-04-17T13:42:36.644Z,20.4
2018-04-17T13:43:56.490Z,20.4
2018-04-17T13:45:23.890Z,20.4
2018-04-17T13:46:43.739Z,20.4
2018-04-17T13:48:06.144Z,20.5
2018-04-17T13:49:31.043Z,20.5
2018-04-17T13:50:58.471Z,20.5
2018-04-17T13:52:20.864Z,20.6
2018-04-17T13:53:48.273Z,20.6
2018-04-17T13:55:13.148Z,20.6
2018-04-17T13:56:35.551Z,20.5
2018-04-17T13:57:55.416Z,20.5
2018-04-17T13:59:20.335Z,20.6
2018-04-17T14:00:40.183Z,20.7
2018-04-17T14:02:00.037Z,20.7
2018-04-17T14:03:19.882Z,20.8
2018-04-17T14:04:42.235Z,20.7
2018-04-17T14:06:04.588Z,20.7
2018-04-17T14:07:24.470Z,20.7
2018-04-17T14:08:46.838Z,20.8
2018-04-17T14:10:06.661Z,20.8
2018-04-17T14:11:29.029Z,20.8
2018-04-17T14:12:48.869Z,20.8
2018-04-17T14:14:11.228Z,20.9
2018-04-17T14:15:31.089Z,20.9
2018-04-17T14:16:53.442Z,21
2018-04-17T14:18:20.851Z,20.7
2018-04-17T14:19:40.679Z,20.7
2018-04-17T14:21:00.526Z,21
2018-04-17T14:22:25.457Z,21.1
2018-04-17T14:23:45.327Z,20.8
2018-04-17T14:25:07.722Z,21
2018-04-17T14:26:27.543Z,21.1
2018-04-17T14:27:49.930Z,21.3
2018-04-17T14:29:17.375Z,21.3
2018-04-17T14:30:39.767Z,21.4
2018-04-17T14:31:59.636Z,21.1
2018-04-17T14:33:19.464Z,21.4
2018-04-17T14:34:44.440Z,21.5
2018-04-17T14:36:04.316Z,21
2018-04-17T14:37:29.213Z,21.5
2018-04-17T14:38:49.055Z,21.7
2018-04-17T14:40:08.867Z,21.7
2018-04-17T14:41:28.740Z,21.7
2018-04-17T14:42:53.663Z,21.7
2018-04-17T14:44:18.536Z,21.9
2018-04-17T14:45:38.382Z,21.9
2018-04-17T14:46:58.202Z,21.9
2018-04-17T14:48:18.068Z,22
2018-04-17T14:49:50.604Z,22
2018-04-17T14:51:10.454Z,22
2018-04-17T14:52:30.295Z,22
2018-04-17T14:53:55.236Z,22
2018-04-17T14:55:17.619Z,22
2018-04-17T14:56:37.436Z,21.9
2018-04-17T14:58:02.427Z,21.9
2018-04-17T14:59:24.811Z,21.9
2018-04-17T15:00:49.739Z,21.9
2018-04-17T15:02:12.111Z,21.9
2018-04-17T15:03:31.951Z,22
2018-04-17T15:04:54.368Z,21.9
2018-04-17T15:06:16.772Z,21.9
2018-04-17T15:07:36.597Z,21.9
2018-04-17T15:08:58.959Z,21.9
2018-04-17T15:10:18.780Z,21.8
2018-04-17T15:11:43.664Z,21.7
2018-04-17T15:13:06.084Z,21.7
2018-04-17T15:14:28.449Z,21.6
2018-04-17T15:15:48.322Z,21.6
2018-04-17T15:17:08.136Z,21.5
2018-04-17T15:18:27.956Z,21.4
2018-04-17T15:19:50.343Z,21.4
2018-04-17T15:21:12.718Z,21.3
2018-04-17T15:22:32.536Z,21.3
2018-04-17T15:23:52.414Z,21.2
2018-04-17T15:25:12.236Z,21.2
2018-04-17T15:26:32.091Z,21
2018-04-17T15:27:59.561Z,21.1
2018-04-17T15:29:29.561Z,21.1
2018-04-17T15:30:51.960Z,21.1
2018-04-17T15:32:14.323Z,20.9
2018-04-17T15:33:46.815Z,20.9
2018-04-17T15:35:06.678Z,20.9
2018-04-17T15:36:31.577Z,20.8
2018-04-17T15:37:53.935Z,20.8
2018-04-17T15:39:13.760Z,20.8
2018-04-17T15:40:36.158Z,20.7
2018-04-17T15:41:58.540Z,20.7
2018-04-17T15:43:33.530Z,20.6
2018-04-17T15:44:53.360Z,20.6
2018-04-17T15:46:18.239Z,20.6
2018-04-17T15:47:40.654Z,20.5
2018-04-17T15:49:03.048Z,20.5
2018-04-17T15:50:25.453Z,20.4
2018-04-17T15:51:45.290Z,20.4
2018-04-17T15:53:15.257Z,20.4
2018-04-17T15:54:37.606Z,20.4
2018-04-17T15:56:02.502Z,20.3
2018-04-17T15:57:22.331Z,20.3
2018-04-17T15:58:42.163Z,20.2
2018-04-17T16:00:24.791Z,20.2
2018-04-17T16:01:44.645Z,20.2
2018-04-17T16:03:04.496Z,20.2
2018-04-17T16:04:24.373Z,20.1
2018-04-17T16:05:44.208Z,20.1
2018-04-17T16:07:04.066Z,20.1
2018-04-17T16:08:23.938Z,20
2018-04-17T16:09:51.370Z,20
2018-04-17T16:11:11.219Z,20
2018-04-17T16:12:38.638Z,20
2018-04-17T16:14:00.986Z,20
2018-04-17T16:15:23.375Z,19.9
2018-04-17T16:16:43.217Z,19.9
2018-04-17T16:18:03.116Z,19.9
2018-04-17T16:19:28.001Z,19.8
2018-04-17T16:20:50.367Z,19.7
2018-04-17T16:22:12.718Z,19.7
2018-04-17T16:23:32.595Z,19.7
2018-04-17T16:24:57.497Z,19.8
2018-04-17T16:26:19.911Z,19.9
2018-04-17T16:27:39.764Z,19.9
2018-04-17T16:28:59.607Z,19.8
2018-04-17T16:30:19.460Z,19.8
2018-04-17T16:31:41.862Z,19.8
2018-04-17T16:33:01.728Z,19.6
2018-04-17T16:34:24.127Z,19.6
2018-04-17T16:35:43.959Z,19.6
2018-04-17T16:37:03.862Z,19.6
2018-04-17T16:38:23.708Z,19.6
2018-04-17T16:39:46.069Z,19.6
2018-04-17T16:41:05.930Z,19.6
2018-04-17T16:42:30.872Z,19.7
2018-04-17T16:43:50.731Z,19.7
2018-04-17T16:45:13.100Z,19.7
2018-04-17T16:46:32.921Z,19.6
2018-04-17T16:47:52.753Z,19.6
2018-04-17T16:49:12.612Z,19.6
2018-04-17T16:50:45.169Z,19.6
2018-04-17T16:52:05.013Z,19.5
2018-04-17T16:53:24.866Z,19.4
2018-04-17T16:54:47.261Z,19.4
2018-04-17T16:56:14.699Z,19.3
2018-04-17T16:57:34.570Z,19.3
2018-04-17T16:58:54.417Z,19.4
2018-04-17T17:00:16.827Z,19.2
2018-04-17T17:01:36.675Z,19.2
2018-04-17T17:02:56.497Z,19.3
2018-04-17T17:04:16.386Z,19.2
2018-04-17T17:05:36.216Z,19.1
2018-04-17T17:06:56.059Z,19.1
2018-04-17T17:08:15.882Z,19.1
2018-04-17T17:09:35.709Z,19.1
2018-04-17T17:10:58.117Z,19.1
2018-04-17T17:12:17.947Z,19.1
2018-04-17T17:13:42.833Z,19.1
2018-04-17T17:15:05.182Z,19.1
2018-04-17T17:16:27.525Z,19.1
2018-04-17T17:17:52.420Z,19
2018-04-17T17:19:12.288Z,19
2018-04-17T17:20:34.667Z,18.9
2018-04-17T17:21:54.520Z,19
2018-04-17T17:23:16.884Z,19
2018-04-17T17:24:44.365Z,18.9
2018-04-17T17:26:04.211Z,18.9
2018-04-17T17:27:24.065Z,18.8
2018-04-17T17:28:43.915Z,18.8
2018-04-17T17:30:03.739Z,18.6
2018-04-17T17:31:23.636Z,18.6
2018-04-17T17:32:51.089Z,18.6
2018-04-17T17:34:13.456Z,18.6
2018-04-17T17:35:33.345Z,18.5
2018-04-17T17:37:00.753Z,18.4
2018-04-17T17:38:20.582Z,18.4
2018-04-17T17:39:40.460Z,18.4
2018-04-17T17:41:00.302Z,18.3
2018-04-17T17:42:20.147Z,18.2
2018-04-17T17:43:42.511Z,18.3
2018-04-17T17:45:02.372Z,18.2
2018-04-17T17:46:22.259Z,18.2
2018-04-17T17:47:44.678Z,18.2
2018-04-17T17:49:04.533Z,18.1
2018-04-17T17:50:26.940Z,18
2018-04-17T17:51:46.763Z,17.9
2018-04-17T17:53:06.589Z,17.7
2018-04-17T17:54:29.019Z,17.6
2018-04-17T17:55:48.911Z,16.7
2018-04-17T17:57:16.381Z,16.8
2018-04-17T17:58:43.881Z,16.5
2018-04-17T18:00:03.713Z,16.6
2018-04-17T18:01:23.547Z,16.8
2018-04-17T18:02:43.417Z,16.9
2018-04-17T18:04:05.759Z,17
2018-04-17T18:05:25.604Z,16.9
2018-04-17T18:06:45.425Z,16.8
2018-04-17T18:08:05.257Z,16.8
2018-04-17T18:09:30.186Z,16.8
2018-04-17T18:10:50.006Z,17
2018-04-17T18:12:09.825Z,16.8
2018-04-17T18:13:32.236Z,16.7
2018-04-17T18:14:54.613Z,16.8
2018-04-17T18:16:14.460Z,16.7
2018-04-17T18:17:34.313Z,16.6
2018-04-17T18:18:54.217Z,16.8
2018-04-17T18:20:14.069Z,16.8